Time;durP1;ratioP1;P1;durP2;ratioP2;P2;SDS_P1;SDS_P2;PMS_P1;PMS_P2;Temp;Humidity;BMP_temperature;BMP_pressure;BME280_temperature;BME280_humidity;BME280_pressure;Samples;Min_cycle;Max_cycle;Signal;HPM_P1;HPM_P2
2024/01/17 00:00:30;;;;;;;35.05;20.83;;;;;;;;;;5101047;28;20390;-53
2024/01/17 00:02:56;;;;;;;33.15;18.77;;;;;;;;;;5102223;28;20055;-52
2024/01/17 00:05:23;;;;;;;28.48;18.23;;;;;;;;;;5101803;28;20036;-52
2024/01/17 00:07:49;;;;;;;25.60;17.27;;;;;;;;;;5101108;28;20038;-51
2024/01/17 00:10:16;;;;;;;30.85;19.55;;;;;;;;;;5101530;28;20107;-51
2024/01/17 00:12:42;;;;;;;33.20;18.58;;;;;;;;;;5100901;28;20023;-52
2024/01/17 00:15:08;;;;;;;29.52;17.88;;;;;;;;;;5111251;28;20064;-52
2024/01/17 00:17:34;;;;;;;27.60;18.00;;;2.40;99.90;;;;;;5099606;28;20032;-52
2024/01/17 00:20:00;;;;;;;40.95;23.80;;;2.50;99.90;;;;;;5099619;28;20541;-50
2024/01/17 00:22:26;;;;;;;43.25;26.63;;;2.50;99.90;;;;;;5047828;28;20028;-52
2024/01/17 00:24:52;;;;;;;43.75;24.15;;;2.60;99.90;;;;;;5101255;28;20490;-53
2024/01/17 00:27:18;;;;;;;43.70;26.38;;;2.20;99.90;;;;;;5099417;28;20075;-52
2024/01/17 00:29:45;;;;;;;41.75;23.88;;;2.20;99.90;;;;;;5040355;28;20036;-52
2024/01/17 00:32:11;;;;;;;33.85;19.83;;;2.20;99.90;;;;;;5090792;28;20036;-50
2024/01/17 00:34:37;;;;;;;30.77;19.73;;;2.50;99.90;;;;;;5071382;28;20422;-50
2024/01/17 00:37:03;;;;;;;36.35;21.38;;;2.40;99.90;;;;;;5054718;28;20036;-52
2024/01/17 00:39:28;;;;;;;32.13;20.13;;;2.40;99.90;;;;;;5071628;28;20138;-53
2024/01/17 00:41:54;;;;;;;34.58;21.38;;;2.20;99.90;;;;;;5090534;28;20028;-50
2024/01/17 00:44:21;;;;;;;39.58;23.67;;;2.40;99.90;;;;;;5091016;28;20036;-50
2024/01/17 00:46:47;;;;;;;35.72;23.15;;;2.30;99.90;;;;;;5090689;28;20077;-53
2024/01/17 00:49:13;;;;;;;36.28;24.15;;;2.60;99.90;;;;;;5090849;28;20032;-52
2024/01/17 00:51:39;;;;;;;38.83;25.40;;;2.60;99.90;;;;;;5090586;28;20364;-50
2024/01/17 00:54:05;;;;;;;32.20;22.20;;;2.80;99.90;;;;;;5090745;28;20036;-52
2024/01/17 00:56:34;;;;;;;31.10;21.25;;;2.80;99.90;;;;;;5091801;28;20024;-51
2024/01/17 00:58:59;;;;;;;30.73;21.05;;;2.70;99.90;;;;;;5094463;28;20058;-52
2024/01/17 01:01:26;;;;;;;31.88;21.35;;;;;;;;;;5094591;28;20464;-52
2024/01/17 01:03:52;;;;;;;30.20;21.50;;;3.20;99.90;;;;;;5094435;28;20024;-49
2024/01/17 01:06:17;;;;;;;30.70;21.27;;;3.30;99.90;;;;;;5094425;28;20028;-53
2024/01/17 01:08:43;;;;;;;36.58;24.75;;;3.40;99.90;;;;;;5075118;28;20090;-51
2024/01/17 01:11:09;;;;;;;37.67;24.42;;;3.40;99.90;;;;;;5094627;28;20028;-52
2024/01/17 01:13:34;;;;;;;40.53;28.17;;;3.60;99.90;;;;;;5094270;28;20514;-52
2024/01/17 01:16:00;;;;;;;75.18;47.00;;;3.60;99.90;;;;;;5094423;28;20020;-50
2024/01/17 01:18:26;;;;;;;78.70;45.45;;;3.60;99.90;;;;;;5075104;28;20039;-50
2024/01/17 01:20:51;;;;;;;86.45;50.97;;;3.60;99.90;;;;;;5094002;28;20028;-50
2024/01/17 01:23:17;;;;;;;103.05;60.20;;;3.60;99.90;;;;;;5094170;28;20046;-52
2024/01/17 01:25:44;;;;;;;109.53;58.45;;;3.60;99.90;;;;;;5093979;28;20071;-51
2024/01/17 01:28:09;;;;;;;92.88;51.33;;;3.50;99.90;;;;;;5094221;28;20032;-52
2024/01/17 01:30:35;;;;;;;62.90;37.25;;;3.60;99.90;;;;;;5093863;28;20479;-50
2024/01/17 01:33:01;;;;;;;44.22;28.67;;;3.80;99.90;;;;;;5074439;28;20063;-52
2024/01/17 01:35:26;;;;;;;53.55;33.40;;;3.50;99.90;;;;;;5093597;28;20079;-50
2024/01/17 01:37:52;;;;;;;44.67;26.98;;;2.90;99.90;;;;;;5093844;28;20036;-50
2024/01/17 01:40:18;;;;;;;37.50;23.35;;;3.00;99.90;;;;;;5057474;28;20462;-53
2024/01/17 01:42:44;;;;;;;41.08;27.27;;;2.80;99.90;;;;;;5093952;28;20455;-50
2024/01/17 01:45:10;;;;;;;40.40;25.30;;;2.20;99.90;;;;;;5093728;28;20148;-53
2024/01/17 01:47:36;;;;;;;37.30;23.70;;;;;;;;;;5093816;28;20024;-52
2024/01/17 01:50:05;;;;;;;44.38;24.77;;;2.10;99.90;;;;;;5093805;28;20189;-51
2024/01/17 01:52:33;;;;;;;47.20;26.58;;;2.10;99.90;;;;;;5074503;28;20040;-52
2024/01/17 01:55:01;;;;;;;39.15;24.58;;;2.20;99.90;;;;;;5093676;28;20040;-51
2024/01/17 01:57:29;;;;;;;41.05;24.17;;;2.50;99.90;;;;;;5093345;28;20539;-52
2024/01/17 01:59:56;;;;;;;40.15;24.55;;;2.70;99.90;;;;;;5092071;28;20115;-50
2024/01/17 02:02:23;;;;;;;39.45;25.33;;;;;;;;;;5093267;28;20028;-50
2024/01/17 02:04:51;;;;;;;37.20;22.65;;;3.50;99.90;;;;;;5073888;28;20621;-50
2024/01/17 02:07:21;;;;;;;37.35;23.42;;;3.30;99.90;;;;;;5093241;28;20036;-52
2024/01/17 02:09:48;;;;;;;41.95;25.92;;;3.30;99.90;;;;;;5092768;28;20028;-51
2024/01/17 02:12:14;;;;;;;41.83;26.08;;;3.40;99.90;;;;;;5093090;28;20685;-51
2024/01/17 02:14:43;;;;;;;39.22;24.02;;;3.50;99.90;;;;;;5092842;28;20053;-53
2024/01/17 02:17:09;;;;;;;35.83;24.15;;;3.60;99.90;;;;;;5073971;28;20062;-53
2024/01/17 02:19:36;;;;;;;34.13;22.50;;;;;;;;;;5057075;28;20498;-51
2024/01/17 02:22:02;;;;;;;41.55;24.65;;;3.60;99.90;;;;;;5093439;28;20455;-51
2024/01/17 02:24:28;;;;;;;47.03;29.73;;;3.50;99.90;;;;;;5040146;28;20061;-52
2024/01/17 02:26:54;;;;;;;52.35;35.15;;;3.30;99.90;;;;;;5093049;28;20075;-52
2024/01/17 02:29:21;;;;;;;61.85;39.08;;;3.10;99.90;;;;;;5092864;28;20077;-51
2024/01/17 02:31:48;;;;;;;48.17;31.83;;;3.00;99.90;;;;;;5093161;28;20107;-53
2024/01/17 02:34:14;;;;;;;39.80;24.33;;;3.00;99.90;;;;;;5092753;28;20713;-50
2024/01/17 02:36:40;;;;;;;37.83;24.30;;;2.90;99.90;;;;;;5093013;28;20055;-50
2024/01/17 02:39:05;;;;;;;38.60;23.60;;;2.70;99.90;;;;;;5040209;28;20131;-50
2024/01/17 02:41:31;;;;;;;33.83;20.77;;;2.50;99.90;;;;;;5068403;28;20443;-50
2024/01/17 02:43:57;;;;;;;30.90;20.88;;;2.10;99.90;;;;;;5050109;28;20207;-51
2024/01/17 02:46:24;;;;;;;32.47;22.65;;;;;;;;;;5049728;28;20044;-50
2024/01/17 02:48:50;;;;;;;35.22;21.40;;;;;;;;;;5049784;28;20115;-52
2024/01/17 02:51:16;;;;;;;22.38;13.10;;;1.30;99.90;;;;;;5049872;28;20071;-52
2024/01/17 02:53:42;;;;;;;24.92;16.48;;;;;;;;;;5032790;28;20061;-49
2024/01/17 02:56:08;;;;;;;23.35;14.50;;;1.10;99.90;;;;;;5016202;28;20037;-53
2024/01/17 02:58:34;;;;;;;27.33;18.13;;;0.90;99.90;;;;;;5032777;28;20551;-50
2024/01/17 03:00:59;;;;;;;33.35;19.63;;;0.80;99.90;;;;;;5049482;28;20049;-51
2024/01/17 03:03:25;;;;;;;30.48;19.25;;;1.00;99.90;;;;;;5032645;28;20057;-51
2024/01/17 03:05:51;;;;;;;33.97;20.38;;;1.00;99.90;;;;;;5049360;28;20196;-52
2024/01/17 03:08:17;;;;;;;28.42;19.63;;;1.20;99.90;;;;;;5032736;28;20041;-50
2024/01/17 03:10:42;;;;;;;27.55;18.25;;;1.30;99.90;;;;;;5049197;28;20092;-52
2024/01/17 03:13:12;;;;;;;32.90;21.05;;;1.30;99.90;;;;;;5096746;28;20032;-51
2024/01/17 03:15:38;;;;;;;30.65;19.55;;;1.40;99.90;;;;;;5112455;28;20093;-51
2024/01/17 03:18:06;;;;;;;27.50;18.48;;;1.80;99.90;;;;;;5112363;28;20463;-49
2024/01/17 03:20:32;;;;;;;30.55;19.17;;;2.10;99.90;;;;;;5075560;28;20483;-50
2024/01/17 03:22:58;;;;;;;35.45;21.70;;;2.30;99.90;;;;;;5112543;28;20077;-51
2024/01/17 03:25:24;;;;;;;44.33;24.08;;;;;;;;;;5112676;28;20434;-50
2024/01/17 03:27:50;;;;;;;29.02;19.42;;;2.60;99.90;;;;;;5112607;28;20028;-53
2024/01/17 03:30:16;;;;;;;32.25;18.98;;;;;;;;;;5112072;28;20394;-52
2024/01/17 03:32:42;;;;;;;32.45;20.00;;;;;;;;;;5112221;28;20110;-51
2024/01/17 03:35:08;;;;;;;36.13;20.77;;;;;;;;;;5111900;28;20055;-52
2024/01/17 03:37:34;;;;;;;33.38;20.40;;;2.10;99.90;;;;;;5112083;28;20501;-53
2024/01/17 03:40:00;;;;;;;35.10;21.10;;;1.80;99.90;;;;;;5112162;28;20023;-54
2024/01/17 03:42:26;;;;;;;42.20;24.33;;;;;;;;;;5059268;28;20052;-51
2024/01/17 03:44:52;;;;;;;33.22;21.15;;;;;;;;;;5111682;28;20042;-52
2024/01/17 03:47:18;;;;;;;28.90;19.40;;;;;;;;;;5075623;28;20040;-53
2024/01/17 03:49:44;;;;;;;31.85;21.45;;;1.60;99.90;;;;;;5111510;28;20065;-52
2024/01/17 03:52:09;;;;;;;30.73;19.60;;;1.80;99.90;;;;;;5059068;28;20043;-51
2024/01/17 03:54:36;;;;;;;32.13;20.58;;;1.80;99.90;;;;;;5111577;28;20024;-51
2024/01/17 03:57:02;;;;;;;30.50;19.98;;;;;;;;;;5112077;28;20615;-51
2024/01/17 03:59:28;;;;;;;30.95;19.40;;;2.30;99.90;;;;;;5111546;28;20020;-51
2024/01/17 04:01:54;;;;;;;31.77;20.45;;;2.30;99.90;;;;;;5111343;28;20364;-50
2024/01/17 04:04:20;;;;;;;28.63;19.42;;;;;;;;;;5111586;28;20031;-52
2024/01/17 04:06:46;;;;;;;28.00;19.98;;;2.60;99.90;;;;;;5058759;28;20031;-51
2024/01/17 04:09:12;;;;;;;29.10;19.88;;;;;;;;;;5111444;28;20034;-52
2024/01/17 04:11:37;;;;;;;32.33;20.75;;;2.10;99.90;;;;;;5111796;28;20028;-53
2024/01/17 04:14:03;;;;;;;38.38;25.02;;;1.90;99.90;;;;;;5111724;28;20046;-51
2024/01/17 04:16:29;;;;;;;45.40;28.88;;;2.00;99.90;;;;;;5075460;28;20097;-50
2024/01/17 04:18:55;;;;;;;32.35;21.20;;;;;;;;;;5058632;28;20375;-50
2024/01/17 04:21:22;;;;;;;31.02;19.98;;;;;;;;;;5111199;28;20114;-52
2024/01/17 04:23:49;;;;;;;38.65;22.55;;;;;;;;;;5111410;28;20032;-52
2024/01/17 04:26:23;;;;;;;37.35;25.45;;;2.30;99.90;;;;;;5075258;28;20119;-52
2024/01/17 04:28:50;;;;;;;29.77;19.50;;;2.30;99.90;;;;;;5111371;28;20031;-51
2024/01/17 04:31:29;;;;;;;27.58;19.33;;;2.50;99.90;;;;;;5111145;28;20023;-51
2024/01/17 04:33:56;;;;;;;31.73;19.60;;;2.60;99.90;;;;;;5110761;28;20028;-50
2024/01/17 04:36:24;;;;;;;32.50;21.15;;;2.50;99.90;;;;;;5093011;28;20048;-51
2024/01/17 04:38:49;;;;;;;32.03;20.30;;;2.60;99.90;;;;;;5069245;28;20044;-50
2024/01/17 04:41:16;;;;;;;31.45;19.40;;;2.80;99.90;;;;;;5091200;28;20043;-51
2024/01/17 04:43:44;;;;;;;34.38;22.50;;;2.60;99.90;;;;;;5090963;28;20024;-49
2024/01/17 04:46:12;;;;;;;28.10;19.92;;;2.40;99.90;;;;;;5090324;28;20040;-49
2024/01/17 04:48:39;;;;;;;31.15;20.40;;;2.60;99.90;;;;;;5091207;28;20044;-51
2024/01/17 04:51:05;;;;;;;28.58;19.60;;;2.80;99.90;;;;;;5083789;28;20036;-52
2024/01/17 04:53:37;;;;;;;32.88;20.20;;;2.70;99.90;;;;;;5079272;28;20046;-50
2024/01/17 04:56:06;;;;;;;32.00;22.20;;;2.60;99.90;;;;;;5079359;28;20055;-52
2024/01/17 04:58:32;;;;;;;29.27;19.58;;;;;;;;;;5079074;28;20021;-50
2024/01/17 05:00:59;;;;;;;32.10;21.13;;;;;;;;;;5080526;28;20043;-52
2024/01/17 05:03:25;;;;;;;28.38;18.35;;;;;;;;;;5081789;28;20025;-51
2024/01/17 05:05:51;;;;;;;30.48;20.45;;;2.10;99.90;;;;;;5080807;28;20024;-51
2024/01/17 05:08:17;;;;;;;34.80;24.10;;;;;;;;;;5087023;28;20028;-51
2024/01/17 05:10:46;;;;;;;33.28;21.85;;;;;;;;;;5079161;28;20023;-50
2024/01/17 05:13:13;;;;;;;35.53;22.70;;;;;;;;;;5079293;28;20120;-49
2024/01/17 05:15:40;;;;;;;38.28;22.75;;;;;;;;;;5079868;28;20493;-52
2024/01/17 05:18:06;;;;;;;34.78;21.95;;;;;;;;;;5083036;28;20028;-51
2024/01/17 05:20:33;;;;;;;32.80;18.77;;;1.70;99.90;;;;;;5071276;28;20032;-49
2024/01/17 05:22:59;;;;;;;29.05;20.58;;;1.40;99.90;;;;;;5090309;28;20032;-49
2024/01/17 05:25:28;;;;;;;30.60;21.15;;;1.30;99.90;;;;;;5090745;28;20028;-49
2024/01/17 05:27:54;;;;;;;29.55;19.95;;;1.30;99.90;;;;;;5090384;28;20051;-50
2024/01/17 05:30:21;;;;;;;29.67;18.85;;;1.40;99.90;;;;;;5081562;28;20074;-51
2024/01/17 05:32:47;;;;;;;32.92;20.23;;;1.40;99.90;;;;;;5071193;28;20097;-51
2024/01/17 05:35:16;;;;;;;30.27;20.15;;;1.40;99.90;;;;;;5089964;28;20052;-49
2024/01/17 05:37:45;;;;;;;27.55;18.48;;;1.40;99.90;;;;;;5090264;28;20028;-50
2024/01/17 05:40:12;;;;;;;25.48;17.05;;;1.40;99.90;;;;;;5073296;28;20044;-49
2024/01/17 05:42:39;;;;;;;28.48;16.10;;;1.40;99.90;;;;;;5070261;28;20074;-50
2024/01/17 05:45:25;;;;;;;32.50;22.27;;;;;;;;;;5073532;28;20033;-48
2024/01/17 05:47:51;;;;;;;38.92;25.70;;;;;;;;;;5070624;28;20619;-49
2024/01/17 05:50:17;;;;;;;36.85;25.13;;;;;;;;;;5070668;28;20056;-49
2024/01/17 05:52:45;;;;;;;36.05;23.02;;;;;;;;;;5037524;28;20124;-50
2024/01/17 05:55:12;;;;;;;30.83;19.48;;;;;;;;;;5070854;28;20086;-50
2024/01/17 05:57:39;;;;;;;32.28;20.67;;;;;;;;;;5070694;28;20082;-50
2024/01/17 06:00:09;;;;;;;29.95;16.80;;;;;;;;;;5070536;28;20044;-49
2024/01/17 06:02:38;;;;;;;27.30;17.40;;;;;;;;;;5070722;28;20079;-52
2024/01/17 06:05:05;;;;;;;22.73;14.23;;;1.00;99.90;;;;;;5070348;28;20047;-51
2024/01/17 06:07:31;;;;;;;18.30;11.00;;;;;;;;;;5070668;28;20041;-49
2024/01/17 06:09:57;;;;;;;23.98;14.40;;;0.80;99.90;;;;;;5036836;28;20119;-51
2024/01/17 06:12:23;;;;;;;29.10;17.85;;;0.80;99.90;;;;;;5069984;28;20174;-49
2024/01/17 06:14:49;;;;;;;35.90;20.75;;;0.60;99.90;;;;;;5070519;28;20502;-51
2024/01/17 06:17:15;;;;;;;40.63;23.45;;;0.80;99.90;;;;;;5036754;28;20044;-49
2024/01/17 06:19:41;;;;;;;34.72;23.05;;;1.30;99.90;;;;;;5070181;28;20678;-49
2024/01/17 06:22:07;;;;;;;27.98;16.95;;;1.30;99.90;;;;;;5068405;28;20064;-50
2024/01/17 06:24:34;;;;;;;23.92;14.32;;;1.40;99.90;;;;;;5074579;28;20394;-49
2024/01/17 06:27:00;;;;;;;23.13;16.08;;;1.40;99.90;;;;;;5057270;28;20036;-50
2024/01/17 06:29:26;;;;;;;28.35;16.02;;;1.50;99.90;;;;;;5093230;28;20024;-50
2024/01/17 06:31:53;;;;;;;25.63;16.10;;;;;;;;;;5093560;28;20100;-49
2024/01/17 06:34:19;;;;;;;25.30;16.27;;;2.10;99.90;;;;;;5093899;28;20035;-49
2024/01/17 06:36:44;;;;;;;24.15;14.85;;;2.20;99.90;;;;;;5114350;28;20024;-50
2024/01/17 06:39:11;;;;;;;25.65;17.38;;;;;;;;;;5114160;28;20032;-49
2024/01/17 06:41:37;;;;;;;25.05;16.05;;;;;;;;;;5114049;28;20028;-50
2024/01/17 06:44:03;;;;;;;27.02;16.50;;;;;;;;;;5114261;28;20027;-49
2024/01/17 06:46:30;;;;;;;27.98;15.90;;;;;;;;;;5114110;28;20023;-50
2024/01/17 06:48:56;;;;;;;26.77;17.42;;;;;;;;;;5113865;28;20444;-50
2024/01/17 06:51:22;;;;;;;19.38;10.40;;;;;;;;;;5113930;28;20012;-50
2024/01/17 06:53:48;;;;;;;22.50;13.77;;;;;;;;;;5113679;28;20110;-49
2024/01/17 06:56:14;;;;;;;18.85;13.15;;;;;;;;;;5114362;28;20028;-51
2024/01/17 06:58:41;;;;;;;17.00;12.45;;;;;;;;;;5061505;28;20073;-50
2024/01/17 07:01:07;;;;;;;19.48;13.93;;;;;;;;;;5113959;28;20046;-49
2024/01/17 07:03:33;;;;;;;17.83;11.90;;;;;;;;;;5061185;28;20084;-49
2024/01/17 07:05:59;;;;;;;20.23;12.52;;;;;;;;;;5061169;28;20032;-50
2024/01/17 07:08:25;;;;;;;22.10;15.82;;;;;;;;;;5113665;28;20382;-50
2024/01/17 07:11:11;;;;;;;22.90;15.68;;;;;;;;;;5113903;28;20103;-49
2024/01/17 07:13:41;;;;;;;25.77;15.70;;;3.40;99.90;;;;;;5047560;28;20040;-51
2024/01/17 07:16:07;;;;;;;28.27;17.83;;;;;;;;;;5070322;28;20039;-50
2024/01/17 07:18:34;;;;;;;22.33;15.93;;;;;;;;;;5070232;28;20540;-49
2024/01/17 07:21:09;;;;;;;23.27;14.85;;;;;;;;;;5058239;28;20041;-49
2024/01/17 07:23:35;;;;;;;22.38;13.52;;;;;;;;;;5059087;28;20115;-49
2024/01/17 07:26:01;;;;;;;25.63;15.52;;;;;;;;;;5060722;28;20040;-49
2024/01/17 07:28:28;;;;;;;20.95;14.48;;;;;;;;;;5057657;28;20036;-51
2024/01/17 07:30:54;;;;;;;20.42;15.27;;;;;;;;;;5060657;28;20035;-51
2024/01/17 07:33:20;;;;;;;20.45;14.48;;;;;;;;;;5049687;28;20037;-52
2024/01/17 07:35:46;;;;;;;25.90;17.05;;;;;;;;;;5033210;28;20052;-50
2024/01/17 07:38:12;;;;;;;22.80;14.60;;;;;;;;;;5032273;28;20037;-50
2024/01/17 07:40:40;;;;;;;23.27;14.95;;;;;;;;;;5038028;28;20143;-51
2024/01/17 07:43:06;;;;;;;21.65;14.35;;;;;;;;;;5040452;28;20046;-51
2024/01/17 07:45:31;;;;;;;22.77;14.18;;;4.10;99.90;;;;;;5020274;28;20060;-52
2024/01/17 07:47:57;;;;;;;20.88;14.45;;;4.00;99.90;;;;;;5020348;28;20544;-51
2024/01/17 07:50:23;;;;;;;18.02;13.07;;;3.80;99.90;;;;;;5021043;28;20071;-51
2024/01/17 07:52:49;;;;;;;21.67;13.20;;;3.90;99.90;;;;;;5013207;28;20616;-51
2024/01/17 07:55:15;;;;;;;17.02;11.60;;;4.00;99.90;;;;;;5022187;28;20116;-52
2024/01/17 07:57:41;;;;;;;19.77;13.02;;;3.90;99.90;;;;;;5019372;28;20121;-52
2024/01/17 08:00:08;;;;;;;21.20;13.63;;;4.10;99.90;;;;;;4985350;28;20655;-52
2024/01/17 08:02:33;;;;;;;23.17;14.93;;;4.10;99.90;;;;;;4973947;28;20076;-50
2024/01/17 08:04:59;;;;;;;28.85;17.88;;;4.20;99.90;;;;;;5019103;28;20061;-53
2024/01/17 08:07:26;;;;;;;30.08;17.63;;;4.10;99.90;;;;;;5014997;28;20124;-52
2024/01/17 08:09:52;;;;;;;16.75;11.85;;;4.10;99.90;;;;;;5038390;28;20036;-52
2024/01/17 08:12:19;;;;;;;19.73;14.43;;;4.10;99.90;;;;;;5072383;28;20028;-51
2024/01/17 08:14:45;;;;;;;21.50;14.68;;;4.00;99.90;;;;;;5070586;28;20406;-51
2024/01/17 08:17:11;;;;;;;20.17;14.52;;;4.10;99.90;;;;;;5072001;28;20023;-51
2024/01/17 08:19:38;;;;;;;18.88;12.85;;;4.10;99.90;;;;;;5029161;28;20037;-51
2024/01/17 08:22:04;;;;;;;15.18;11.60;;;4.00;99.90;;;;;;5029451;28;20037;-52
2024/01/17 08:24:30;;;;;;;15.82;11.80;;;4.00;99.90;;;;;;5029238;28;20041;-53
2024/01/17 08:26:56;;;;;;;17.27;12.45;;;4.10;99.90;;;;;;5029543;28;20029;-52
2024/01/17 08:29:23;;;;;;;17.50;11.07;;;4.00;99.90;;;;;;5028929;28;20048;-49
2024/01/17 08:31:49;;;;;;;15.65;11.88;;;4.40;99.90;;;;;;5037825;28;20025;-50
2024/01/17 08:34:15;;;;;;;17.52;11.82;;;4.40;99.90;;;;;;5048605;28;20043;-51
2024/01/17 08:36:41;;;;;;;18.48;12.52;;;4.30;99.90;;;;;;5043475;28;20029;-52
2024/01/17 08:39:06;;;;;;;16.75;12.00;;;4.50;99.90;;;;;;5057619;28;20195;-51
2024/01/17 08:41:33;;;;;;;16.27;10.35;;;4.50;99.90;;;;;;5042429;28;20155;-52
2024/01/17 08:44:15;;;;;;;18.48;13.32;;;4.60;99.90;;;;;;5062682;28;20472;-53
2024/01/17 08:47:02;;;;;;;14.93;11.68;;;4.50;99.90;;;;;;5056104;28;20037;-53
2024/01/17 08:49:29;;;;;;;19.52;13.35;;;4.80;99.90;;;;;;5059196;28;20021;-52
2024/01/17 08:51:54;;;;;;;16.60;12.30;;;4.80;99.90;;;;;;5088948;28;20024;-50
2024/01/17 08:54:21;;;;;;;16.40;10.60;;;4.90;99.90;;;;;;5063197;28;20032;-51
2024/01/17 08:56:47;;;;;;;17.80;11.95;;;4.90;99.90;;;;;;5091824;28;20387;-50
2024/01/17 08:59:12;;;;;;;16.75;11.85;;;4.90;99.90;;;;;;5091459;28;20028;-52
2024/01/17 09:01:38;;;;;;;14.65;11.05;;;5.10;99.90;;;;;;5072265;28;20048;-53
2024/01/17 09:04:04;;;;;;;17.00;11.88;;;5.30;99.90;;;;;;5091754;28;20081;-51
2024/01/17 09:06:29;;;;;;;19.15;14.20;;;5.30;99.90;;;;;;5092108;28;20028;-51
2024/01/17 09:08:55;;;;;;;21.63;13.02;;;5.40;99.90;;;;;;5091757;28;20027;-49
2024/01/17 09:11:21;;;;;;;22.38;15.32;;;5.50;99.90;;;;;;5072768;28;20047;-50
2024/01/17 09:13:48;;;;;;;17.05;12.15;;;5.60;99.90;;;;;;5072465;28;20036;-50
2024/01/17 09:16:13;;;;;;;17.98;12.15;;;5.50;99.90;;;;;;5072556;28;20040;-50
2024/01/17 09:18:40;;;;;;;33.67;17.80;;;5.60;99.90;;;;;;5073069;28;20040;-49
2024/01/17 09:21:05;;;;;;;18.13;12.68;;;5.50;99.90;;;;;;5085286;28;20547;-50
2024/01/17 09:23:31;;;;;;;23.80;14.27;;;5.70;99.90;;;;;;5074911;28;20032;-49
2024/01/17 09:25:57;;;;;;;16.58;13.48;;;5.80;99.90;;;;;;5074752;28;20020;-50
2024/01/17 09:28:23;;;;;;;15.88;11.93;;;5.90;99.90;;;;;;5072811;28;20044;-49
2024/01/17 09:30:48;;;;;;;21.40;13.32;;;6.00;99.90;;;;;;5074568;28;20110;-49
2024/01/17 09:33:15;;;;;;;23.13;16.52;;;6.00;99.90;;;;;;5074933;28;20532;-49
2024/01/17 09:35:44;;;;;;;22.65;14.52;;;6.00;99.90;;;;;;5086920;28;20052;-50
2024/01/17 09:38:12;;;;;;;18.67;13.13;;;6.20;99.90;;;;;;5095148;28;20032;-49
2024/01/17 09:40:39;;;;;;;21.70;12.75;;;6.30;99.90;;;;;;5093854;28;20043;-50
2024/01/17 09:43:06;;;;;;;24.02;15.43;;;6.20;99.90;;;;;;5097893;28;20035;-49
2024/01/17 09:45:33;;;;;;;31.88;17.65;;;6.20;99.90;;;;;;5097737;28;20065;-50
2024/01/17 09:48:00;;;;;;;24.67;16.05;;;6.30;99.90;;;;;;5095179;28;20089;-49
2024/01/17 09:50:27;;;;;;;24.65;16.83;;;6.30;99.90;;;;;;5095915;28;20036;-49
2024/01/17 09:52:54;;;;;;;19.20;13.48;;;6.30;99.90;;;;;;5105620;28;20035;-49
2024/01/17 09:55:21;;;;;;;24.90;19.02;;;6.60;99.90;;;;;;5100020;28;20085;-49
2024/01/17 09:57:54;;;;;;;19.65;13.50;;;6.50;99.90;;;;;;5058769;28;20067;-49
2024/01/17 10:00:20;;;;;;;45.13;21.63;;;6.70;99.90;;;;;;5094379;28;20123;-49
2024/01/17 10:02:48;;;;;;;31.05;17.63;;;6.70;99.90;;;;;;5103126;28;20020;-50
2024/01/17 10:05:16;;;;;;;55.85;24.23;;;6.90;99.90;;;;;;5099778;28;20028;-49
2024/01/17 10:07:45;;;;;;;49.55;24.45;;;;;;;;;;5094831;28;20081;-50
2024/01/17 10:10:10;;;;;;;51.35;23.08;;;7.60;99.90;;;;;;5076098;28;20488;-49
2024/01/17 10:12:37;;;;;;;29.48;14.30;;;;;;;;;;5094256;28;20024;-50
2024/01/17 10:15:06;;;;;;;51.40;26.55;;;7.80;99.90;;;;;;5094120;28;20490;-49
2024/01/17 10:17:35;;;;;;;44.47;27.45;;;7.60;99.90;;;;;;5075481;28;20062;-50
2024/01/17 10:20:02;;;;;;;42.00;26.65;;;7.10;99.90;;;;;;5094131;28;20039;-50
2024/01/17 10:22:28;;;;;;;49.03;26.25;;;;;;;;;;5077057;28;20570;-50
2024/01/17 10:24:54;;;;;;;52.30;32.95;;;;;;;;;;5104422;28;20081;-50
2024/01/17 10:27:20;;;;;;;32.22;21.60;;;7.00;99.90;;;;;;5104002;28;20027;-49
2024/01/17 10:29:46;;;;;;;23.10;14.38;;;6.90;99.90;;;;;;5103503;28;20490;-50
2024/01/17 10:32:12;;;;;;;33.08;23.40;;;6.90;99.90;;;;;;5102703;28;20048;-50
2024/01/17 10:34:41;;;;;;;31.08;20.65;;;7.10;99.90;;;;;;5103662;28;20051;-50
2024/01/17 10:37:11;;;;;;;26.88;20.33;;;8.20;99.90;;;;;;5078035;28;20399;-50
2024/01/17 10:39:37;;;;;;;20.35;14.07;;;;;;;;;;5093840;28;20086;-50
2024/01/17 10:42:05;;;;;;;25.05;18.80;;;;;;;;;;5074751;28;20040;-50
2024/01/17 10:44:31;;;;;;;30.40;20.88;;;10.70;99.90;;;;;;5108528;28;20042;-50
2024/01/17 10:46:57;;;;;;;23.95;17.73;;;;;;;;;;5114092;28;20016;-50
2024/01/17 10:49:24;;;;;;;21.52;12.32;;;;;;;;;;5061767;28;20039;-49
2024/01/17 10:51:50;;;;;;;18.08;12.88;;;;;;;;;;5114176;28;20040;-50
2024/01/17 10:54:19;;;;;;;19.83;13.23;;;;;;;;;;5109009;28;20447;-50
2024/01/17 10:56:49;;;;;;;24.17;15.70;;;;;;;;;;5073290;28;20042;-50
2024/01/17 10:59:19;;;;;;;19.73;12.93;;;10.10;99.90;;;;;;5092184;28;20031;-50
2024/01/17 11:01:49;;;;;;;18.52;13.20;;;9.90;99.90;;;;;;5092270;28;20036;-50
2024/01/17 11:04:20;;;;;;;16.83;12.70;;;9.90;99.90;;;;;;5091453;28;20556;-51
2024/01/17 11:06:48;;;;;;;24.30;12.75;;;10.00;99.90;;;;;;5073957;28;20035;-50
2024/01/17 11:09:14;;;;;;;21.85;12.13;;;10.20;99.90;;;;;;5100010;28;20102;-50
2024/01/17 11:11:42;;;;;;;18.02;12.00;;;10.10;99.90;;;;;;5103417;28;20024;-52
2024/01/17 11:14:08;;;;;;;13.90;9.13;;;10.20;99.90;;;;;;5102040;28;20031;-49
2024/01/17 11:16:36;;;;;;;15.77;9.02;;;10.30;99.90;;;;;;5105101;28;20451;-50
2024/01/17 11:19:02;;;;;;;14.07;9.85;;;10.20;99.90;;;;;;5093934;28;20028;-50
2024/01/17 11:21:29;;;;;;;14.30;8.85;;;;;;;;;;5101441;28;20040;-50
2024/01/17 11:24:28;;;;;;;10.80;6.85;;;;;;;;;;5093204;28;20047;-50
2024/01/17 11:26:54;;;;;;;12.77;9.23;;;10.20;99.90;;;;;;5056660;28;20035;-50
2024/01/17 11:29:33;;;;;;;13.88;9.77;;;10.20;99.90;;;;;;5113425;28;20475;-50
2024/01/17 11:32:20;;;;;;;14.20;10.15;;;10.00;99.90;;;;;;5113120;28;20028;-51
2024/01/17 11:34:49;;;;;;;18.25;11.30;;;10.10;99.90;;;;;;5092604;28;20052;-50
2024/01/17 11:37:34;;;;;;;26.45;14.27;;;10.00;99.90;;;;;;5093037;28;20024;-50
2024/01/17 11:40:01;;;;;;;20.88;12.45;;;9.70;99.90;;;;;;5092560;28;20036;-51
2024/01/17 11:42:27;;;;;;;16.48;11.55;;;9.50;99.90;;;;;;5091968;28;20027;-50
2024/01/17 11:44:53;;;;;;;23.48;13.38;;;;;;;;;;5092717;28;20027;-50
2024/01/17 11:47:22;;;;;;;19.52;10.82;;;9.40;99.90;;;;;;5092899;28;20026;-50
2024/01/17 11:49:49;;;;;;;14.68;9.30;;;9.20;99.90;;;;;;5092804;28;20024;-50
2024/01/17 11:52:31;;;;;;;13.02;8.73;;;;;;;;;;5092474;28;20024;-50
2024/01/17 11:54:57;;;;;;;13.52;8.88;;;;;;;;;;5092517;28;20020;-50
2024/01/17 11:57:29;;;;;;;17.10;10.70;;;9.50;99.90;;;;;;5092662;28;20428;-50
2024/01/17 12:00:12;;;;;;;19.38;11.18;;;9.50;99.90;;;;;;5092391;28;20058;-50
2024/01/17 12:02:44;;;;;;;27.67;18.63;;;9.70;99.90;;;;;;5040081;28;20027;-50
2024/01/17 12:05:11;;;;;;;14.25;9.57;;;9.70;99.90;;;;;;5056536;28;20071;-50
2024/01/17 12:07:42;;;;;;;17.02;13.32;;;9.90;99.90;;;;;;5092697;28;20024;-50
2024/01/17 12:10:10;;;;;;;18.55;13.88;;;9.80;99.90;;;;;;5094587;28;20494;-50
2024/01/17 12:12:43;;;;;;;16.02;11.57;;;9.80;99.90;;;;;;5062464;28;20034;-50
2024/01/17 12:15:09;;;;;;;17.83;11.90;;;;;;;;;;5112362;28;20429;-50
2024/01/17 12:17:40;;;;;;;14.93;9.02;;;9.90;99.90;;;;;;5112513;28;20020;-50
2024/01/17 12:20:07;;;;;;;14.70;10.45;;;9.90;99.90;;;;;;5114574;28;20031;-52
2024/01/17 12:22:34;;;;;;;15.25;10.15;;;10.00;99.90;;;;;;5122121;27;20466;-50
2024/01/17 12:24:59;;;;;;;21.30;15.60;;;10.20;99.90;;;;;;5130323;27;20027;-50
2024/01/17 12:27:30;;;;;;;23.95;15.45;;;10.20;99.90;;;;;;5089406;28;20591;-50
2024/01/17 12:30:00;;;;;;;21.58;15.18;;;10.10;99.90;;;;;;5041462;28;20043;-50
2024/01/17 12:32:26;;;;;;;19.33;13.20;;;10.10;99.90;;;;;;5089493;28;20573;-50
2024/01/17 12:34:52;;;;;;;15.98;10.07;;;10.10;99.90;;;;;;5089431;28;20082;-50
2024/01/17 12:37:18;;;;;;;14.68;8.85;;;10.10;99.90;;;;;;5072591;28;20501;-50
2024/01/17 12:39:44;;;;;;;12.57;9.32;;;10.00;99.90;;;;;;5089366;28;20027;-50
2024/01/17 12:42:10;;;;;;;13.30;8.90;;;10.10;99.90;;;;;;5055805;28;20036;-50
2024/01/17 12:44:36;;;;;;;22.38;15.88;;;;;;;;;;5089364;28;20064;-50
2024/01/17 12:47:03;;;;;;;15.07;11.32;;;10.30;99.90;;;;;;5089470;28;20115;-50
2024/01/17 12:49:29;;;;;;;40.42;25.27;;;10.20;99.90;;;;;;5039556;28;20127;-50
2024/01/17 12:51:55;;;;;;;17.77;12.55;;;10.20;99.90;;;;;;5089693;28;20107;-50
2024/01/17 12:54:22;;;;;;;17.13;9.40;;;10.30;99.90;;;;;;5093627;28;20074;-50
2024/01/17 12:56:49;;;;;;;12.75;8.77;;;;;;;;;;5093405;28;20107;-50
2024/01/17 12:59:16;;;;;;;11.65;8.18;;;10.20;99.90;;;;;;5130121;27;20162;-50
2024/01/17 13:01:42;;;;;;;13.82;8.60;;;10.20;99.90;;;;;;5136582;27;20039;-50